Time;durP1;ratioP1;P1;durP2;ratioP2;P2;SDS_P1;SDS_P2;PMS_P1;PMS_P2;Temp;Humidity;BMP_temperature;BMP_pressure;BME280_temperature;BME280_humidity;BME280_pressure;Samples;Min_cycle;Max_cycle;Signal;HPM_P1;HPM_P2
2023/03/15 00:01:18;;;;;;;9.00;5.00;;;;;;;4.39;62.97;99077.22;107023;1260;70777;-84
2023/03/15 00:03:45;;;;;;;8.10;5.80;;;;;;;4.37;62.96;99057.34;106455;1260;72885;-84
2023/03/15 00:06:12;;;;;;;7.10;4.60;;;;;;;4.33;63.36;99059.36;106396;1260;60923;-78
2023/03/15 00:08:39;;;;;;;8.00;4.50;;;;;;;4.30;63.42;99064.71;105779;1265;60757;-81
2023/03/15 00:11:06;;;;;;;9.90;5.30;;;;;;;4.26;63.75;99060.03;106250;1261;73557;-84
2023/03/15 00:13:34;;;;;;;8.10;5.10;;;;;;;4.23;63.89;99058.79;106455;1261;71252;-81
2023/03/15 00:16:04;;;;;;;9.50;5.40;;;;;;;4.19;64.06;99059.11;108270;1259;73951;-81
2023/03/15 00:18:32;;;;;;;5.90;4.40;;;;;;;4.18;64.03;99045.54;108562;1259;58325;-83
2023/03/15 00:21:00;;;;;;;5.70;4.40;;;;;;;4.18;64.52;99054.71;108588;1260;59412;-83
2023/03/15 00:23:28;;;;;;;7.30;4.50;;;;;;;4.17;64.38;99048.14;107639;1260;72608;-77
2023/03/15 00:25:55;;;;;;;7.30;4.80;;;;;;;4.16;64.64;99051.05;108396;1259;70405;-82
2023/03/15 00:28:23;;;;;;;10.80;5.40;;;;;;;4.13;65.09;99050.17;108032;1259;72536;-76
2023/03/15 00:31:02;;;;;;;14.10;5.30;;;;;;;4.12;65.09;99041.33;108957;1260;58962;-80
2023/03/15 00:33:33;;;;;;;10.40;4.70;;;;;;;4.12;65.16;99042.39;108872;1266;60181;-81
2023/03/15 00:36:05;;;;;;;7.70;5.00;;;;;;;4.11;65.57;99051.77;108095;1259;72840;-80
2023/03/15 00:38:34;;;;;;;7.00;4.50;;;;;;;4.10;65.72;99035.63;108019;1260;70333;-76
2023/03/15 00:41:13;;;;;;;7.20;4.60;;;;;;;4.08;65.92;99038.95;108674;1259;71060;-80
2023/03/15 00:43:42;;;;;;;6.30;4.50;;;;;;;4.08;66.00;99050.55;108785;1260;59437;-78
2023/03/15 00:46:10;;;;;;;4.90;4.10;;;;;;;4.06;66.36;99046.65;109047;1259;60216;-85
2023/03/15 00:48:37;;;;;;;8.30;4.80;;;;;;;4.07;66.53;99048.72;109034;1259;72787;-86
2023/03/15 00:51:08;;;;;;;6.70;4.50;;;;;;;4.05;66.61;99041.84;108984;1259;70074;-85
2023/03/15 00:53:38;;;;;;;7.50;5.20;;;;;;;4.04;66.50;99043.56;108745;1259;72726;-77
2023/03/15 00:56:12;;;;;;;8.40;4.10;;;;;;;4.03;66.79;99042.95;108103;1259;59923;-85
2023/03/15 00:58:39;;;;;;;7.00;3.90;;;;;;;3.99;66.84;99045.39;108791;1259;60007;-81
2023/03/15 01:01:09;;;;;;;5.70;4.10;;;;;;;3.97;67.38;99046.10;107574;1259;73996;-80
2023/03/15 01:03:38;;;;;;;9.80;5.40;;;;;;;4.05;67.39;99039.95;106902;1259;70439;-80
2023/03/15 01:06:06;;;;;;;7.20;3.90;;;;;;;4.09;67.29;99049.21;106688;1260;72919;-76
2023/03/15 01:08:33;;;;;;;8.00;4.10;;;;;;;4.04;67.28;99044.05;106276;1260;60969;-77
2023/03/15 01:11:04;;;;;;;5.70;4.00;;;;;;;3.97;67.59;99048.95;106096;1259;60316;-78
2023/03/15 01:13:32;;;;;;;8.40;5.00;;;;;;;3.91;68.12;99042.98;106626;1266;72995;-77
2023/03/15 01:15:59;;;;;;;7.10;4.90;;;;;;;3.85;68.34;99047.20;108295;1260;69621;-77
2023/03/15 01:18:26;;;;;;;8.10;4.30;;;;;;;3.79;68.43;99039.08;106274;1263;72788;-79
2023/03/15 01:20:53;;;;;;;6.00;4.10;;;;;;;3.74;68.90;99043.37;105716;1260;60712;-80
2023/03/15 01:23:20;;;;;;;8.60;4.50;;;;;;;3.67;69.46;99041.38;107932;1259;60419;-79
2023/03/15 01:25:47;;;;;;;6.00;4.50;;;;;;;3.73;69.62;99039.93;108837;1259;72746;-82
2023/03/15 01:28:14;;;;;;;6.90;4.50;;;;;;;3.80;69.48;99048.41;108947;1259;69383;-80
2023/03/15 01:30:48;;;;;;;5.80;3.50;;;;;;;3.78;69.36;99042.86;109000;1259;72342;-83
2023/03/15 01:33:16;;;;;;;7.10;4.90;;;;;;;3.72;69.80;99048.04;107486;1261;60566;-80
2023/03/15 01:35:43;;;;;;;7.40;4.70;;;;;;;3.68;70.07;99051.75;105771;1264;60278;-81
2023/03/15 01:38:11;;;;;;;9.40;5.90;;;;;;;3.62;70.18;99048.06;105711;1261;74707;-76
2023/03/15 01:40:43;;;;;;;7.30;5.10;;;;;;;3.56;70.42;99046.05;105524;1261;69303;-75
2023/03/15 01:43:17;;;;;;;8.70;5.20;;;;;;;3.49;70.74;99047.71;105295;1261;70640;-76
2023/03/15 01:46:22;;;;;;;6.80;4.50;;;;;;;3.53;70.92;99048.00;105553;1261;62496;-75
2023/03/15 01:49:23;;;;;;;8.40;5.00;;;;;;;3.57;70.64;99044.02;105478;1261;60971;-76
2023/03/15 01:52:11;;;;;;;7.40;5.10;;;;;;;3.48;71.20;99050.26;105548;1264;74865;-77
2023/03/15 01:55:13;;;;;;;8.90;5.50;;;;;;;3.40;71.43;99039.62;106650;1259;71186;-80
2023/03/15 01:57:56;;;;;;;11.00;6.10;;;;;;;3.32;71.79;99046.03;107083;1259;72507;-78
2023/03/15 02:00:26;;;;;;;10.00;5.30;;;;;;;3.28;72.34;99049.27;106977;1263;60495;-79
2023/03/15 02:03:15;;;;;;;8.80;5.50;;;;;;;3.28;72.48;99055.77;105703;1259;60604;-82
2023/03/15 02:05:46;;;;;;;7.70;5.20;;;;;;;3.39;72.32;99053.55;105893;1261;74046;-80
2023/03/15 02:08:20;;;;;;;7.10;5.00;;;;;;;3.36;72.22;99054.29;106233;1259;69211;-78
2023/03/15 02:10:49;;;;;;;7.80;5.30;;;;;;;3.32;72.28;99058.66;106376;1260;72718;-78
2023/03/15 02:13:21;;;;;;;10.60;5.40;;;;;;;3.28;72.43;99052.23;106218;1259;60486;-81
2023/03/15 02:15:52;;;;;;;8.10;5.80;;;;;;;3.25;72.44;99060.20;106786;1259;61326;-80
2023/03/15 02:18:23;;;;;;;9.10;5.40;;;;;;;3.19;73.14;99053.58;108925;1259;71792;-80
2023/03/15 02:21:18;;;;;;;9.30;5.70;;;;;;;3.23;73.21;99048.53;108724;1259;69213;-78
2023/03/15 02:23:49;;;;;;;7.20;5.30;;;;;;;3.29;72.99;99048.77;107794;1259;72738;-79
2023/03/15 02:26:28;;;;;;;8.70;6.30;;;;;;;3.26;73.24;99061.34;106347;1259;60614;-77
2023/03/15 02:28:57;;;;;;;11.00;6.10;;;;;;;3.22;73.44;99039.06;105590;1259;61177;-77
2023/03/15 02:31:24;;;;;;;10.30;7.30;;;;;;;3.19;73.42;99035.53;105524;1259;74659;-78
2023/03/15 02:33:52;;;;;;;9.90;6.20;;;;;;;3.14;73.84;99043.13;105369;1260;71415;-79
2023/03/15 02:36:24;;;;;;;8.20;5.20;;;;;;;3.15;73.67;99036.80;105581;1264;73706;-78
2023/03/15 02:38:54;;;;;;;8.10;5.20;;;;;;;3.25;73.69;99036.39;105536;1259;60534;-78
2023/03/15 02:41:38;;;;;;;10.80;6.00;;;;;;;3.25;73.64;99038.71;105677;1261;61049;-78
2023/03/15 02:44:12;;;;;;;8.20;5.50;;;;;;;3.18;73.65;99033.15;106290;1260;73562;-77
2023/03/15 02:46:39;;;;;;;8.60;6.40;;;;;;;3.12;74.18;99038.05;107785;1259;69417;-77
2023/03/15 02:49:06;;;;;;;8.40;5.70;;;;;;;3.07;74.23;99036.25;107184;1259;70428;-78
2023/03/15 02:51:33;;;;;;;9.40;5.30;;;;;;;3.04;74.46;99032.38;105451;1259;60482;-77
2023/03/15 02:54:01;;;;;;;8.30;5.60;;;;;;;3.12;74.29;99031.42;105706;1259;61339;-77
2023/03/15 02:56:33;;;;;;;7.40;5.40;;;;;;;3.12;74.51;99034.90;106293;1261;73348;-76
2023/03/15 02:59:01;;;;;;;7.80;5.60;;;;;;;3.08;74.34;99026.73;106719;1261;70222;-77
2023/03/15 03:01:28;;;;;;;9.10;6.30;;;;;;;3.02;74.51;99027.61;105582;1267;72330;-79
2023/03/15 03:03:56;;;;;;;7.20;5.70;;;;;;;2.97;74.68;99017.96;105599;1259;60577;-78
2023/03/15 03:06:23;;;;;;;7.80;5.80;;;;;;;2.92;75.31;99018.23;106211;1259;60464;-77
2023/03/15 03:08:54;;;;;;;8.70;5.70;;;;;;;2.99;75.16;99016.48;106097;1261;71563;-77
2023/03/15 03:11:22;;;;;;;10.00;6.40;;;;;;;3.02;74.96;99015.70;108838;1259;70002;-76
2023/03/15 03:13:50;;;;;;;8.60;6.40;;;;;;;2.98;75.14;99008.38;108198;1264;72730;-78
2023/03/15 03:16:18;;;;;;;8.80;6.30;;;;;;;2.93;75.18;99008.79;106062;1264;60549;-76
2023/03/15 03:18:45;;;;;;;8.90;6.40;;;;;;;2.89;75.42;99012.84;105864;1260;60424;-76
2023/03/15 03:21:13;;;;;;;12.80;6.60;;;;;;;2.83;75.52;99011.80;105493;1262;73635;-77
2023/03/15 03:23:45;;;;;;;8.70;5.90;;;;;;;2.83;75.69;99012.70;105464;1260;71286;-77
2023/03/15 03:26:16;;;;;;;8.00;5.70;;;;;;;2.91;75.67;99011.30;105589;1265;72848;-79
2023/03/15 03:28:45;;;;;;;9.40;6.50;;;;;;;2.87;75.80;98999.20;105509;1264;60549;-78
2023/03/15 03:31:17;;;;;;;11.40;6.50;;;;;;;2.80;75.91;99002.65;105698;1263;60419;-78
2023/03/15 03:33:45;;;;;;;10.50;6.90;;;;;;;2.73;76.43;99010.11;105463;1260;74070;-78
2023/03/15 03:36:12;;;;;;;9.60;6.40;;;;;;;2.65;76.57;99010.92;106042;1259;69506;-83
2023/03/15 03:38:40;;;;;;;9.20;6.40;;;;;;;2.69;76.59;99013.89;106320;1259;72937;-81
2023/03/15 03:41:08;;;;;;;8.90;6.30;;;;;;;2.78;76.56;99017.83;106257;1259;60579;-81
2023/03/15 03:43:36;;;;;;;14.50;7.00;;;;;;;2.75;76.76;99010.95;106403;1260;61432;-83
2023/03/15 03:46:04;;;;;;;10.50;6.90;;;;;;;2.72;76.91;99014.67;106200;1261;71662;-78
2023/03/15 03:48:32;;;;;;;11.00;7.40;;;;;;;2.68;76.91;99018.70;106014;1259;69694;-82
2023/03/15 03:50:59;;;;;;;13.30;6.70;;;;;;;2.64;77.33;99015.57;106067;1259;73609;-80
2023/03/15 03:53:26;;;;;;;8.90;6.00;;;;;;;2.72;77.00;99014.51;106107;1260;60394;-79
2023/03/15 03:55:54;;;;;;;10.30;7.30;;;;;;;2.80;76.85;99014.38;106443;1260;61161;-80
2023/03/15 03:58:23;;;;;;;11.40;6.90;;;;;;;2.78;76.86;99008.27;107647;1260;73795;-79
2023/03/15 04:01:04;;;;;;;13.60;8.40;;;;;;;2.75;76.92;99010.09;107051;1259;69182;-77
2023/03/15 04:03:32;;;;;;;13.90;7.60;;;;;;;2.74;76.85;99008.05;107795;1259;72612;-82
2023/03/15 04:06:09;;;;;;;9.80;6.20;;;;;;;2.73;76.82;99010.56;109010;1259;58716;-78
2023/03/15 04:08:40;;;;;;;13.70;6.90;;;;;;;2.81;76.52;99015.48;108447;1263;60070;-81
2023/03/15 04:11:11;;;;;;;10.90;6.60;;;;;;;2.91;76.44;99015.47;108345;1259;72919;-80
2023/03/15 04:13:48;;;;;;;9.40;6.60;;;;;;;2.90;76.26;99012.07;108668;1259;70464;-79
2023/03/15 04:16:16;;;;;;;11.60;7.20;;;;;;;2.87;76.24;99010.80;108767;1259;72660;-80
2023/03/15 04:19:06;;;;;;;11.50;7.90;;;;;;;2.83;76.33;99013.20;109067;1259;58644;-80
2023/03/15 04:21:35;;;;;;;11.50;7.70;;;;;;;2.80;76.59;99009.50;109020;1260;60345;-84
2023/03/15 04:24:21;;;;;;;10.90;6.90;;;;;;;2.80;76.43;99004.02;108732;1259;73162;-80
2023/03/15 04:27:06;;;;;;;10.40;7.30;;;;;;;2.92;76.23;99006.63;108493;1259;70080;-79
2023/03/15 04:30:04;;;;;;;10.40;7.20;;;;;;;2.92;76.27;99012.41;108259;1261;71283;-79
2023/03/15 04:32:57;;;;;;;10.50;7.00;;;;;;;2.88;76.42;99014.33;108568;1259;58517;-78
2023/03/15 04:35:42;;;;;;;10.40;7.60;;;;;;;2.86;76.65;99011.55;108774;1259;59195;-81
2023/03/15 04:38:48;;;;;;;10.90;6.70;;;;;;;2.86;76.70;99013.52;108835;1259;71674;-76
2023/03/15 04:41:27;;;;;;;10.60;7.10;;;;;;;2.98;76.60;99027.08;108801;1259;70113;-79
2023/03/15 04:44:07;;;;;;;9.20;6.80;;;;;;;3.04;76.32;99031.33;108726;1259;70592;-79
2023/03/15 04:46:57;;;;;;;10.10;7.10;;;;;;;3.03;76.24;99016.30;108369;1259;58329;-79
2023/03/15 04:49:50;;;;;;;12.60;8.10;;;;;;;3.06;76.29;99025.70;108812;1259;60066;-79
2023/03/15 04:52:32;;;;;;;11.30;7.70;;;;;;;3.10;76.20;99030.92;108790;1260;72861;-78
2023/03/15 04:55:15;;;;;;;11.70;7.20;;;;;;;3.16;75.96;99035.67;108725;1259;68990;-78
2023/03/15 04:57:57;;;;;;;11.80;7.70;;;;;;;3.28;75.64;99043.45;108973;1259;72081;-80
2023/03/15 05:00:43;;;;;;;11.70;7.70;;;;;;;3.31;75.58;99030.23;108989;1260;58734;-79
2023/03/15 05:03:49;;;;;;;9.80;6.50;;;;;;;3.33;75.35;99043.19;108770;1263;58262;-85
2023/03/15 05:06:35;;;;;;;8.80;6.80;;;;;;;3.35;75.25;99043.54;108791;1263;73780;-81
2023/03/15 05:09:24;;;;;;;9.90;6.00;;;;;;;3.38;75.32;99041.91;108989;1259;70122;-79
2023/03/15 05:12:11;;;;;;;8.40;6.70;;;;;;;3.41;75.31;99050.56;108857;1259;72460;-81
2023/03/15 05:15:09;;;;;;;10.80;6.90;;;;;;;3.52;75.00;99048.85;108369;1260;60547;-77
2023/03/15 05:17:55;;;;;;;10.80;7.30;;;;;;;3.56;74.92;99051.60;107949;1259;60596;-77
2023/03/15 05:20:42;;;;;;;11.90;7.20;;;;;;;3.59;74.91;99045.93;107899;1259;72906;-77
2023/03/15 05:23:39;;;;;;;10.20;7.30;;;;;;;3.67;74.76;99058.16;107859;1259;70014;-80
2023/03/15 05:26:06;;;;;;;16.30;7.90;;;;;;;3.71;74.44;99061.66;108525;1259;72718;-80
2023/03/15 05:28:51;;;;;;;10.40;7.20;;;;;;;3.72;74.29;99085.02;108898;1259;57884;-80
2023/03/15 05:31:20;;;;;;;10.60;7.20;;;;;;;3.78;74.38;99080.85;109066;1259;59332;-80
2023/03/15 05:34:13;;;;;;;11.70;8.20;;;;;;;3.84;74.24;99084.11;108873;1259;73825;-80
2023/03/15 05:37:00;;;;;;;10.60;6.90;;;;;;;3.81;74.25;99092.23;108730;1259;70212;-80
2023/03/15 05:39:49;;;;;;;14.30;8.30;;;;;;;3.79;74.11;99089.31;108780;1259;70840;-79
2023/03/15 05:42:34;;;;;;;13.80;8.20;;;;;;;3.78;74.40;99083.65;108935;1259;58273;-80
2023/03/15 05:45:28;;;;;;;12.10;9.40;;;;;;;3.79;74.80;99086.85;108889;1259;58358;-77
2023/03/15 05:48:27;;;;;;;13.00;8.20;;;;;;;3.93;74.59;99074.85;108826;1260;73624;-83
2023/03/15 05:51:14;;;;;;;13.00;8.40;;;;;;;4.11;73.94;99064.54;109062;1259;68514;-82
2023/03/15 05:53:57;;;;;;;15.10;8.00;;;;;;;4.21;73.68;99067.19;109009;1259;72758;-82
2023/03/15 05:56:44;;;;;;;16.30;7.90;;;;;;;4.28;73.49;99061.11;108474;1259;60523;-78
2023/03/15 05:59:31;;;;;;;13.40;8.40;;;;;;;4.33;73.49;99060.42;108884;1260;60134;-79
2023/03/15 06:02:26;;;;;;;14.30;9.00;;;;;;;4.38;73.37;99059.52;108237;1260;75017;-79
2023/03/15 06:05:09;;;;;;;12.90;8.20;;;;;;;4.42;72.89;99053.68;108808;1259;68398;-80
2023/03/15 06:07:37;;;;;;;12.20;8.10;;;;;;;4.53;73.00;99057.70;108898;1259;71497;-80
2023/03/15 06:10:07;;;;;;;10.70;8.00;;;;;;;4.70;72.71;99059.54;108930;1259;59482;-85
2023/03/15 06:12:35;;;;;;;12.80;8.80;;;;;;;4.78;72.72;99058.48;108874;1259;59191;-78
2023/03/15 06:15:02;;;;;;;16.80;8.80;;;;;;;4.84;72.11;99062.04;108632;1259;73579;-79
2023/03/15 06:17:32;;;;;;;20.00;8.30;;;;;;;4.87;71.94;99063.55;108756;1260;69201;-77
2023/03/15 06:20:00;;;;;;;11.70;8.70;;;;;;;4.88;72.09;99053.59;107054;1259;71586;-75
2023/03/15 06:22:28;;;;;;;13.40;7.30;;;;;;;4.93;72.05;99059.30;107684;1259;60327;-76
2023/03/15 06:24:57;;;;;;;12.40;7.80;;;;;;;4.99;71.75;99059.59;108017;1259;60385;-75
2023/03/15 06:27:24;;;;;;;13.90;8.20;;;;;;;5.02;71.63;99061.23;107516;1259;74673;-80
2023/03/15 06:30:02;;;;;;;14.60;7.70;;;;;;;5.07;71.51;99058.25;108381;1259;69327;-76
2023/03/15 06:32:33;;;;;;;9.20;6.60;;;;;;;5.25;71.36;99059.86;108409;1260;71654;-81
2023/03/15 06:35:00;;;;;;;9.70;6.70;;;;;;;5.41;70.64;99062.02;108194;1259;60175;-80
2023/03/15 06:37:27;;;;;;;8.20;6.80;;;;;;;5.48;70.47;99058.00;108831;1259;60268;-79
2023/03/15 06:40:06;;;;;;;11.20;7.90;;;;;;;5.52;70.38;99054.05;108650;1259;185979;-81
2023/03/15 06:44:07;;;;;;;13.00;8.30;;;;;;;5.59;69.94;99059.70;105764;1292;612050;-81
2023/03/15 06:46:35;;;;;;;10.50;8.00;;;;;;;5.59;69.72;99051.93;108651;1267;59971;-81
2023/03/15 06:49:02;;;;;;;17.80;8.30;;;;;;;5.60;69.79;99045.17;108746;1266;59708;-80
2023/03/15 06:51:30;;;;;;;10.90;8.30;;;;;;;5.65;69.39;99046.24;109242;1257;70244;-82
2023/03/15 06:53:57;;;;;;;13.40;7.90;;;;;;;5.67;69.46;99044.45;107772;1260;69407;-77
2023/03/15 06:56:26;;;;;;;14.30;8.10;;;;;;;5.70;69.26;99041.14;106509;1256;249110;-75
2023/03/15 06:58:53;;;;;;;10.90;9.00;;;;;;;5.72;69.11;99046.23;106750;1255;60334;-76
2023/03/15 07:01:21;;;;;;;11.90;8.20;;;;;;;5.70;69.03;99047.13;107272;1256;59195;-76
2023/03/15 07:03:50;;;;;;;12.10;8.20;;;;;;;5.73;69.09;99047.59;107538;1257;73730;-77
2023/03/15 07:06:17;;;;;;;18.80;9.50;;;;;;;5.79;68.99;99050.33;108042;1257;69210;-77
2023/03/15 07:08:44;;;;;;;13.70;8.80;;;;;;;5.84;69.00;99048.94;107605;1254;71720;-78
2023/03/15 07:11:12;;;;;;;15.00;8.70;;;;;;;5.89;68.79;99048.98;107691;1257;61188;-78
2023/03/15 07:13:40;;;;;;;21.60;9.00;;;;;;;5.97;68.56;99048.85;107531;1253;60374;-80
2023/03/15 07:16:10;;;;;;;13.40;9.20;;;;;;;6.06;68.66;99052.02;107436;1259;72888;-80
2023/03/15 07:18:37;;;;;;;14.70;9.50;;;;;;;6.18;68.28;99045.41;108379;1253;71482;-79
2023/03/15 07:21:05;;;;;;;14.50;9.90;;;;;;;6.28;68.03;99038.19;108718;1254;72478;-79
2023/03/15 07:23:32;;;;;;;14.30;9.10;;;;;;;6.38;67.88;99036.48;109559;1252;58519;-77
2023/03/15 07:26:00;;;;;;;12.50;8.20;;;;;;;6.48;67.66;99039.95;109444;1253;60125;-76
2023/03/15 07:28:29;;;;;;;15.30;8.60;;;;;;;6.56;67.18;99036.42;109373;1253;72899;-76
2023/03/15 07:30:58;;;;;;;13.40;8.40;;;;;;;6.60;67.11;99040.89;107473;1254;70285;-76
2023/03/15 07:33:25;;;;;;;12.20;8.40;;;;;;;6.64;66.83;99045.00;107346;1259;73723;-76
2023/03/15 07:35:52;;;;;;;12.00;8.40;;;;;;;6.63;66.80;99048.84;107503;1258;59639;-78
2023/03/15 07:38:21;;;;;;;15.30;9.50;;;;;;;6.63;66.93;99057.47;107512;1254;60258;-77
2023/03/15 07:40:49;;;;;;;12.90;8.80;;;;;;;6.68;67.09;99055.86;107205;1256;73247;-76
2023/03/15 07:43:18;;;;;;;14.20;8.60;;;;;;;6.72;66.62;99054.41;108674;1254;68957;-75
2023/03/15 07:45:51;;;;;;;;;;;;;;;6.70;66.65;99050.56;108986;1254;71873;-78
2023/03/15 07:48:28;;;;;;;16.40;8.90;;;;;;;6.66;66.80;99051.80;107267;1257;59685;-74
2023/03/15 07:50:55;;;;;;;13.10;8.20;;;;;;;6.64;66.89;99048.95;107047;1254;59950;-75
2023/03/15 07:53:26;;;;;;;15.00;9.20;;;;;;;6.63;67.00;99048.11;107101;1254;74234;-76
2023/03/15 07:55:54;;;;;;;16.30;8.90;;;;;;;6.67;67.13;99050.65;107125;1256;70224;-79
2023/03/15 07:58:21;;;;;;;14.30;8.80;;;;;;;6.73;66.95;99045.19;107144;1256;72577;-77
2023/03/15 08:00:48;;;;;;;12.50;9.80;;;;;;;6.78;66.93;99038.76;107341;1254;60469;-78
2023/03/15 08:03:15;;;;;;;17.90;10.70;;;;;;;6.87;66.85;99045.06;108159;1253;59618;-80
2023/03/15 08:05:42;;;;;;;13.40;9.80;;;;;;;6.98;66.66;99047.96;109439;1254;72801;-78
2023/03/15 08:08:09;;;;;;;19.20;10.20;;;;;;;7.10;66.49;99045.70;108857;1253;68665;-79
2023/03/15 08:10:37;;;;;;;17.50;11.00;;;;;;;7.25;66.25;99056.77;108078;1254;73823;-76
2023/03/15 08:13:05;;;;;;;19.00;11.10;;;;;;;7.40;65.88;99047.94;107588;1253;59611;-77
2023/03/15 08:15:32;;;;;;;19.10;12.00;;;;;;;7.55;65.75;99049.90;107403;1252;59653;-77
2023/03/15 08:18:08;;;;;;;16.10;11.20;;;;;;;7.75;65.59;99041.86;108160;1257;73030;-80
2023/03/15 08:20:35;;;;;;;16.50;11.00;;;;;;;7.97;65.23;99044.06;108668;1254;70709;-79
2023/03/15 08:23:02;;;;;;;24.30;12.30;;;;;;;8.19;64.66;99045.50;108399;1251;72543;-77
2023/03/15 08:25:29;;;;;;;15.40;10.60;;;;;;;8.36;63.85;99044.16;107970;1252;59611;-79
2023/03/15 08:27:57;;;;;;;16.10;10.60;;;;;;;8.44;63.61;99033.90;108372;1253;59884;-79
2023/03/15 08:30:24;;;;;;;14.80;10.30;;;;;;;8.57;63.59;99030.45;108935;1254;73043;-78
2023/03/15 08:32:51;;;;;;;13.90;10.30;;;;;;;8.75;63.07;99031.58;108956;1254;70402;-77
2023/03/15 08:35:20;;;;;;;17.40;10.20;;;;;;;8.88;62.73;99032.93;108970;1254;72804;-77
2023/03/15 08:37:54;;;;;;;15.00;10.30;;;;;;;8.98;62.19;99035.98;109514;1256;60197;-77
2023/03/15 08:40:24;;;;;;;14.50;10.00;;;;;;;9.15;62.31;99034.77;109566;1253;59311;-78
2023/03/15 08:42:54;;;;;;;13.40;9.80;;;;;;;9.44;62.05;99033.09;109599;1253;71925;-77
2023/03/15 08:45:23;;;;;;;16.20;9.60;;;;;;;9.75;61.15;99036.36;109021;1253;68185;-79
2023/03/15 08:47:57;;;;;;;14.40;10.40;;;;;;;9.99;60.45;99033.02;107528;1257;73326;-77
2023/03/15 08:50:26;;;;;;;17.50;9.80;;;;;;;10.23;59.78;99031.37;107890;1254;59406;-80
2023/03/15 08:52:55;;;;;;;14.30;9.90;;;;;;;10.44;59.41;99031.36;108805;1253;60235;-79
2023/03/15 08:55:22;;;;;;;15.80;9.50;;;;;;;10.63;58.64;99030.80;109217;1252;73067;-75
2023/03/15 08:57:50;;;;;;;14.50;9.60;;;;;;;10.84;58.51;99022.06;109293;1253;70424;-77
2023/03/15 09:00:22;;;;;;;15.80;10.70;;;;;;;11.11;57.62;99018.95;109230;1253;72750;-77
2023/03/15 09:02:50;;;;;;;12.40;8.10;;;;;;;11.28;57.42;99011.80;107642;1254;60376;-76
2023/03/15 09:05:20;;;;;;;11.00;8.70;;;;;;;11.47;56.69;99009.75;107282;1254;61253;-76
2023/03/15 09:07:46;;;;;;;13.90;8.90;;;;;;;11.69;56.30;99006.66;107551;1254;72990;-76
2023/03/15 09:10:16;;;;;;;14.60;8.00;;;;;;;11.86;55.50;99006.26;107947;1251;70393;-77
2023/03/15 09:12:45;;;;;;;14.50;8.80;;;;;;;12.02;55.29;99012.77;107786;1254;70899;-79
2023/03/15 09:15:12;;;;;;;13.10;8.40;;;;;;;12.36;54.72;99019.13;108268;1254;59182;-78
2023/03/15 09:17:42;;;;;;;13.60;8.20;;;;;;;12.83;54.03;99016.27;107984;1251;59672;-77
2023/03/15 09:20:13;;;;;;;10.50;6.90;;;;;;;13.40;52.84;99013.47;108391;1256;73672;-79
2023/03/15 09:22:48;;;;;;;;;;;;;;;14.06;51.70;99009.91;109254;1252;68184;-80
2023/03/15 09:25:16;;;;;;;10.00;8.00;;;;;;;14.69;50.60;99012.41;109142;1253;72483;-78
2023/03/15 09:27:43;;;;;;;8.50;7.60;;;;;;;15.37;49.56;99015.93;109377;1254;60227;-79
2023/03/15 09:30:10;;;;;;;14.10;8.50;;;;;;;16.00;48.12;99014.83;109613;1252;57969;-77
2023/03/15 09:32:40;;;;;;;10.40;7.40;;;;;;;16.65;46.66;99013.94;108807;1252;72840;-77
2023/03/15 09:35:11;;;;;;;10.40;8.60;;;;;;;17.19;45.57;99007.13;108521;1256;70290;-77
2023/03/15 09:37:38;;;;;;;10.60;7.80;;;;;;;17.67;44.57;99006.80;107586;1257;72632;-76
2023/03/15 09:40:08;;;;;;;10.80;8.00;;;;;;;18.09;43.82;98998.39;107158;1259;60858;-77
2023/03/15 09:43:04;;;;;;;9.60;7.40;;;;;;;18.54;43.01;98988.26;108124;1254;59755;-77
2023/03/15 09:45:54;;;;;;;9.10;7.60;;;;;;;18.92;42.54;98981.36;107447;1254;71120;-82
2023/03/15 09:48:40;;;;;;;12.20;7.90;;;;;;;19.24;42.10;98976.98;108490;1252;70429;-83
2023/03/15 09:51:30;;;;;;;9.70;8.50;;;;;;;19.68;41.38;98970.95;109088;1254;71974;-81
2023/03/15 09:54:04;;;;;;;9.00;7.70;;;;;;;20.23;40.54;98972.77;109154;1253;60303;-84
2023/03/15 09:56:37;;;;;;;9.60;8.20;;;;;;;20.64;40.11;98971.49;109094;1254;59194;-82
2023/03/15 09:59:08;;;;;;;10.90;8.50;;;;;;;21.21;39.49;98976.88;109160;1253;72799;-82
2023/03/15 10:01:44;;;;;;;9.60;7.90;;;;;;;21.81;38.18;98992.08;108718;1253;68692;-81
2023/03/15 10:04:20;;;;;;;11.40;9.20;;;;;;;22.04;37.54;98995.58;108067;1254;72387;-81
2023/03/15 10:06:51;;;;;;;16.20;9.40;;;;;;;22.12;37.31;98992.59;107890;1254;61776;-81
2023/03/15 10:09:21;;;;;;;12.10;9.50;;;;;;;22.08;37.18;98993.28;108003;1253;61310;-80
2023/03/15 10:12:28;;;;;;;13.10;9.90;;;;;;;22.09;37.20;98993.61;107963;1254;73137;-80
2023/03/15 10:15:05;;;;;;;12.90;9.50;;;;;;;22.22;37.09;98982.48;107821;1254;71166;-80
2023/03/15 10:17:34;;;;;;;10.00;8.90;;;;;;;22.49;37.02;98982.30;108122;1254;73604;-80
2023/03/15 10:20:17;;;;;;;12.30;9.40;;;;;;;22.86;36.60;98978.52;109205;1252;60198;-79
2023/03/15 10:23:04;;;;;;;9.50;8.50;;;;;;;23.19;36.17;98972.90;109558;1253;59443;-80
2023/03/15 10:25:35;;;;;;;11.90;8.80;;;;;;;23.64;35.69;98973.34;109436;1254;73126;-79
2023/03/15 10:28:08;;;;;;;10.50;9.00;;;;;;;24.03;35.31;98970.64;109050;1253;70263;-81
2023/03/15 10:30:37;;;;;;;10.60;9.40;;;;;;;24.46;34.58;98969.09;108645;1251;72709;-80
2023/03/15 10:33:09;;;;;;;10.50;9.10;;;;;;;24.67;34.21;98973.73;108276;1254;60391;-80
2023/03/15 10:35:36;;;;;;;10.60;9.60;;;;;;;24.71;33.56;98971.59;108114;1253;59339;-79
2023/03/15 10:38:17;;;;;;;12.70;10.00;;;;;;;24.55;33.88;98971.93;108281;1254;74124;-81
2023/03/15 10:40:45;;;;;;;10.10;8.40;;;;;;;24.82;33.81;98973.05;108864;1252;68218;-80
2023/03/15 10:43:28;;;;;;;13.70;9.60;;;;;;;25.07;33.49;98973.70;109073;1251;72651;-81
2023/03/15 10:46:04;;;;;;;10.40;9.10;;;;;;;25.24;32.90;98966.04;109002;1253;60786;-81
2023/03/15 10:48:35;;;;;;;11.30;9.70;;;;;;;25.17;32.91;98962.92;108944;1251;60097;-81
2023/03/15 10:51:16;;;;;;;11.30;8.90;;;;;;;25.24;33.07;98963.16;109144;1254;72815;-82
2023/03/15 10:54:09;;;;;;;11.30;8.90;;;;;;;25.81;32.51;98968.10;108787;1256;69974;-81
2023/03/15 10:56:58;;;;;;;11.10;8.70;;;;;;;26.23;32.01;98971.65;108348;1254;72484;-81
2023/03/15 10:59:29;;;;;;;12.40;9.40;;;;;;;26.34;31.32;98975.22;108045;1253;60439;-81
2023/03/15 11:02:12;;;;;;;9.80;8.50;;;;;;;26.23;31.65;98969.64;108054;1252;60412;-79
2023/03/15 11:04:41;;;;;;;11.50;9.10;;;;;;;26.34;31.53;98968.36;108277;1256;73770;-79
2023/03/15 11:07:09;;;;;;;12.90;9.90;;;;;;;26.60;31.44;98964.66;106518;1253;70223;-77
2023/03/15 11:09:44;;;;;;;13.30;9.60;;;;;;;26.96;31.09;98958.40;106604;1254;72762;-76
2023/03/15 11:12:26;;;;;;;12.80;10.10;;;;;;;27.30;30.74;98952.23;108429;1253;60876;-75
2023/03/15 11:15:12;;;;;;;9.50;8.60;;;;;;;27.51;30.31;98947.23;108759;1254;60301;-80
2023/03/15 11:17:46;;;;;;;8.70;7.90;;;;;;;27.72;30.12;98937.42;106575;1253;73896;-76
2023/03/15 11:20:25;;;;;;;11.50;8.60;;;;;;;27.95;29.88;98933.20;106453;1254;71228;-79
2023/03/15 11:22:54;;;;;;;9.00;7.50;;;;;;;28.04;29.67;98940.55;106101;1257;72858;-78
2023/03/15 11:25:25;;;;;;;8.70;7.80;;;;;;;28.15;29.45;98937.57;105818;1256;61749;-76
2023/03/15 11:27:52;;;;;;;9.40;8.10;;;;;;;28.11;29.37;98931.52;105941;1254;60592;-82
2023/03/15 11:30:27;;;;;;;11.30;8.10;;;;;;;28.08;29.27;98931.38;106043;1254;73834;-79
2023/03/15 11:32:55;;;;;;;10.70;8.00;;;;;;;28.08;29.23;98934.92;106011;1254;71541;-82
2023/03/15 11:35:32;;;;;;;9.60;8.00;;;;;;;28.05;29.09;98934.15;105984;1254;72205;-77
2023/03/15 11:38:02;;;;;;;9.10;8.00;;;;;;;28.09;29.18;98938.40;106127;1254;61629;-76
2023/03/15 11:40:47;;;;;;;10.60;8.00;;;;;;;28.03;28.47;98940.36;106194;1251;60793;-77
2023/03/15 11:43:21;;;;;;;;;;;;;;;27.76;29.34;98939.48;106294;1254;73846;-78
2023/03/15 11:45:52;;;;;;;9.10;7.40;;;;;;;28.02;28.93;98946.61;106061;1257;69996;-78
2023/03/15 11:48:54;;;;;;;8.60;7.50;;;;;;;28.09;28.68;98941.29;105675;1257;71603;-76
2023/03/15 11:51:21;;;;;;;9.90;7.20;;;;;;;28.07;28.52;98945.03;106004;1254;60530;-81
2023/03/15 11:54:04;;;;;;;9.40;7.30;;;;;;;27.97;28.69;98940.58;106030;1257;60501;-80
2023/03/15 11:56:45;;;;;;;9.40;7.40;;;;;;;27.89;28.75;98939.09;106090;1256;75512;-80
2023/03/15 11:59:40;;;;;;;9.70;7.80;;;;;;;28.00;28.66;98939.88;106381;1256;70286;-79